createdAt,value
2023-02-20T00:02:00.587Z,94.50
2023-02-20T00:04:29.800Z,94.60
2023-02-20T00:06:59.006Z,94.60
2023-02-20T00:09:29.236Z,94.60
2023-02-20T00:11:58.513Z,94.50
2023-02-20T00:14:28.364Z,94.80
2023-02-20T00:16:57.849Z,94.70
2023-02-20T00:19:27.037Z,95.00
2023-02-20T00:21:56.202Z,94.70
2023-02-20T00:24:25.375Z,94.70
2023-02-20T00:26:55.618Z,94.60
2023-02-20T00:29:25.972Z,94.50
2023-02-20T00:31:58.099Z,94.50
2023-02-20T00:34:30.186Z,94.50
2023-02-20T00:36:59.479Z,94.30
2023-02-20T00:39:28.719Z,94.20
2023-02-20T00:41:58.383Z,94.20
2023-02-20T00:44:28.383Z,94.00
2023-02-20T00:46:57.458Z,94.00
2023-02-20T00:49:26.636Z,94.00
2023-02-20T00:51:56.093Z,93.80
2023-02-20T00:54:25.308Z,93.80
2023-02-20T00:56:54.692Z,93.70
2023-02-20T00:59:23.766Z,93.40
2023-02-20T01:01:52.997Z,93.30
2023-02-20T01:04:22.666Z,93.20
2023-02-20T01:06:51.792Z,93.00
2023-02-20T01:09:21.403Z,92.90
2023-02-20T01:11:50.687Z,93.00
2023-02-20T01:14:20.293Z,92.90
2023-02-20T01:16:53.811Z,93.00
2023-02-20T01:19:25.551Z,92.90
2023-02-20T01:21:54.937Z,92.90
2023-02-20T01:24:24.084Z,92.60
2023-02-20T01:26:53.198Z,92.40
2023-02-20T01:29:22.429Z,92.20
2023-02-20T01:31:53.747Z,92.20
2023-02-20T01:34:32.121Z,92.20
2023-02-20T01:37:04.514Z,92.00
2023-02-20T01:39:35.428Z,91.80
2023-02-20T01:42:12.114Z,91.70
2023-02-20T01:44:47.553Z,91.60
2023-02-20T01:47:30.131Z,91.50
2023-02-20T01:50:08.244Z,91.40
2023-02-20T01:52:41.603Z,91.00
2023-02-20T01:55:18.997Z,91.00
2023-02-20T01:58:08.162Z,90.80
2023-02-20T02:00:38.190Z,91.00
2023-02-20T02:03:15.842Z,91.00
2023-02-20T02:05:50.602Z,91.00
2023-02-20T02:08:23.761Z,91.10
2023-02-20T02:11:04.710Z,90.70
2023-02-20T02:13:36.502Z,90.70
2023-02-20T02:16:39.339Z,90.80
2023-02-20T02:19:38.235Z,91.00
2023-02-20T02:22:27.730Z,91.20
2023-02-20T02:25:16.998Z,91.00
2023-02-20T02:28:19.539Z,90.80
2023-02-20T02:31:23.215Z,90.70
2023-02-20T02:34:01.183Z,90.40
2023-02-20T02:37:02.081Z,90.60
2023-02-20T02:40:06.210Z,90.30
2023-02-20T02:43:09.512Z,90.30
2023-02-20T02:45:56.636Z,90.20
2023-02-20T02:48:40.058Z,89.60
2023-02-20T02:51:22.822Z,88.90
2023-02-20T02:54:18.429Z,88.70
2023-02-20T02:56:50.247Z,88.60
2023-02-20T02:59:33.958Z,88.00
2023-02-20T03:02:10.467Z,87.60
2023-02-20T03:04:42.530Z,87.50
2023-02-20T03:07:17.709Z,87.30
2023-02-20T03:10:02.176Z,86.70
2023-02-20T03:12:33.683Z,86.80
2023-02-20T03:15:34.610Z,86.50
2023-02-20T03:18:38.488Z,86.50
2023-02-20T03:21:19.808Z,86.10
2023-02-20T03:23:58.944Z,85.70
2023-02-20T03:26:39.080Z,85.30
2023-02-20T03:29:21.746Z,85.00
2023-02-20T03:32:26.656Z,84.70
2023-02-20T03:35:17.218Z,83.90
2023-02-20T03:38:08.220Z,84.10
2023-02-20T03:40:58.619Z,83.70
2023-02-20T03:43:31.069Z,82.60
2023-02-20T03:46:12.715Z,82.90
2023-02-20T03:49:01.792Z,82.10
2023-02-20T03:51:49.881Z,81.70
2023-02-20T03:54:20.864Z,81.60
2023-02-20T03:56:57.067Z,81.20
2023-02-20T03:59:40.067Z,81.00
2023-02-20T04:02:46.438Z,81.10
2023-02-20T04:05:30.804Z,80.70
2023-02-20T04:08:32.409Z,80.20
2023-02-20T04:11:36.720Z,79.40
2023-02-20T04:14:08.620Z,79.30
2023-02-20T04:16:53.691Z,78.70
2023-02-20T04:19:23.153Z,79.50
2023-02-20T04:22:01.034Z,79.30
2023-02-20T04:24:39.314Z,78.90
2023-02-20T04:27:09.910Z,79.10
2023-02-20T04:29:39.108Z,78.80
2023-02-20T04:32:08.392Z,78.60
2023-02-20T04:34:38.294Z,78.10
2023-02-20T04:37:16.898Z,77.70
2023-02-20T04:39:46.181Z,78.50
2023-02-20T04:42:15.425Z,78.60
2023-02-20T04:44:44.568Z,77.80
2023-02-20T04:47:19.916Z,77.30
2023-02-20T04:49:49.123Z,77.50
2023-02-20T04:52:18.281Z,76.30
2023-02-20T04:54:47.512Z,76.50
2023-02-20T04:57:16.844Z,76.10
2023-02-20T04:59:46.105Z,75.30
2023-02-20T05:02:15.708Z,75.00
2023-02-20T05:04:44.835Z,74.60
2023-02-20T05:07:14.191Z,73.60
2023-02-20T05:09:46.210Z,73.70
2023-02-20T05:12:15.383Z,74.20
2023-02-20T05:14:45.225Z,73.60
2023-02-20T05:17:14.630Z,73.70
2023-02-20T05:19:43.837Z,73.70
2023-02-20T05:22:22.508Z,74.00
2023-02-20T05:24:53.428Z,74.30
2023-02-20T05:27:25.478Z,72.40
2023-02-20T05:29:58.297Z,71.70
2023-02-20T05:32:31.440Z,72.10
2023-02-20T05:35:00.703Z,71.80
2023-02-20T05:37:31.690Z,71.50
2023-02-20T05:40:02.597Z,71.40
2023-02-20T05:42:31.768Z,72.20
2023-02-20T05:45:03.388Z,71.70
2023-02-20T05:47:32.692Z,70.20
2023-02-20T05:50:01.897Z,69.50
2023-02-20T05:52:31.293Z,70.40
2023-02-20T05:55:00.529Z,70.10
2023-02-20T05:57:30.063Z,70.60
2023-02-20T05:59:59.362Z,70.30
2023-02-20T06:02:29.132Z,70.40
2023-02-20T06:04:58.422Z,70.40
2023-02-20T06:07:27.661Z,69.80
2023-02-20T06:09:58.244Z,70.30
2023-02-20T06:12:27.970Z,69.50
2023-02-20T06:14:58.947Z,69.60
2023-02-20T06:17:30.627Z,69.30
2023-02-20T06:20:00.033Z,68.80
2023-02-20T06:22:29.192Z,69.20
2023-02-20T06:24:58.681Z,69.30
2023-02-20T06:27:27.816Z,68.70
2023-02-20T06:29:56.939Z,68.40
2023-02-20T06:32:26.568Z,68.80
2023-02-20T06:34:55.700Z,68.50
2023-02-20T06:37:25.055Z,68.00
2023-02-20T06:39:54.284Z,68.10
2023-02-20T06:42:23.554Z,68.20
2023-02-20T06:44:52.767Z,67.30
2023-02-20T06:47:21.883Z,67.00
2023-02-20T06:49:51.189Z,67.50
2023-02-20T06:52:20.445Z,68.00
2023-02-20T06:54:49.683Z,66.10
2023-02-20T06:57:19.130Z,65.90
2023-02-20T06:59:50.635Z,66.20
2023-02-20T07:02:20.259Z,66.20
2023-02-20T07:04:52.938Z,66.40
2023-02-20T07:07:22.035Z,66.30
2023-02-20T07:09:51.175Z,66.80
2023-02-20T07:12:20.458Z,67.00
2023-02-20T07:14:52.867Z,65.60
2023-02-20T07:17:22.397Z,65.50
2023-02-20T07:19:51.578Z,66.30
2023-02-20T07:22:20.712Z,65.50
2023-02-20T07:24:54.337Z,65.30
2023-02-20T07:27:23.980Z,66.50
2023-02-20T07:29:53.522Z,66.30
2023-02-20T07:32:24.579Z,65.70
2023-02-20T07:35:03.763Z,66.10
2023-02-20T07:37:34.769Z,65.40
2023-02-20T07:40:04.614Z,65.30
2023-02-20T07:42:33.889Z,64.90
2023-02-20T07:45:03.120Z,65.00
2023-02-20T07:47:32.250Z,64.70
2023-02-20T07:50:01.902Z,65.80
2023-02-20T07:52:31.087Z,64.80
2023-02-20T07:55:00.251Z,65.80
2023-02-20T07:57:29.947Z,65.00
2023-02-20T07:59:59.216Z,65.70
2023-02-20T08:02:28.438Z,65.10
2023-02-20T08:04:57.595Z,65.30
2023-02-20T08:07:27.048Z,65.30
2023-02-20T08:09:56.229Z,65.00
2023-02-20T08:12:25.522Z,65.40
2023-02-20T08:14:55.109Z,64.60
2023-02-20T08:17:26.410Z,65.00
2023-02-20T08:19:57.136Z,64.90
2023-02-20T08:22:39.947Z,64.90
2023-02-20T08:25:10.687Z,64.90
2023-02-20T08:27:44.602Z,65.90
2023-02-20T08:30:28.393Z,64.90
2023-02-20T08:32:57.980Z,64.90
2023-02-20T08:35:27.265Z,64.20
2023-02-20T08:37:56.510Z,63.80
2023-02-20T08:40:25.680Z,64.30
2023-02-20T08:42:54.941Z,64.70
2023-02-20T08:45:24.668Z,65.10
2023-02-20T08:48:02.758Z,65.50
2023-02-20T08:50:31.574Z,65.30
2023-02-20T08:53:01.165Z,67.20
2023-02-20T08:55:30.404Z,65.40
2023-02-20T08:57:59.537Z,65.00
2023-02-20T09:00:29.439Z,65.00
2023-02-20T09:02:59.050Z,65.10
2023-02-20T09:05:28.685Z,65.20
2023-02-20T09:07:57.833Z,65.30
2023-02-20T09:10:27.109Z,65.10
2023-02-20T09:12:56.263Z,65.60
2023-02-20T09:15:26.062Z,65.20
2023-02-20T09:17:56.501Z,64.80
2023-02-20T09:20:25.730Z,65.30
2023-02-20T09:23:01.364Z,65.10
2023-02-20T09:25:30.521Z,64.90
2023-02-20T09:27:59.952Z,64.80
2023-02-20T09:30:29.776Z,64.30
2023-02-20T09:32:59.101Z,65.20
2023-02-20T09:35:32.914Z,65.10
2023-02-20T09:38:02.881Z,65.30
2023-02-20T09:40:33.958Z,65.10
2023-02-20T09:43:19.791Z,65.40
2023-02-20T09:46:18.712Z,64.80
2023-02-20T09:49:16.885Z,65.20
2023-02-20T09:51:58.594Z,65.10
2023-02-20T09:55:07.916Z,65.30
2023-02-20T09:57:39.397Z,65.60
2023-02-20T10:00:26.689Z,65.60
2023-02-20T10:03:52.280Z,65.50
2023-02-20T10:06:26.364Z,65.90
2023-02-20T10:08:57.214Z,66.10
2023-02-20T10:11:57.116Z,66.00
2023-02-20T10:14:35.123Z,65.80
2023-02-20T10:17:12.683Z,65.90
2023-02-20T10:20:16.724Z,65.90
2023-02-20T10:23:00.318Z,65.80
2023-02-20T10:25:50.389Z,66.30
2023-02-20T10:28:23.167Z,66.80
2023-02-20T10:31:51.135Z,66.80
2023-02-20T10:34:34.486Z,67.60
2023-02-20T10:37:31.308Z,67.20
2023-02-20T10:40:34.833Z,67.30
2023-02-20T10:43:26.638Z,67.50
2023-02-20T10:46:48.275Z,67.70
2023-02-20T10:49:52.933Z,68.00
2023-02-20T10:52:41.984Z,68.40
2023-02-20T10:55:27.631Z,68.60
2023-02-20T10:58:40.261Z,69.00
2023-02-20T11:01:21.488Z,69.30
2023-02-20T11:03:57.552Z,70.10
2023-02-20T11:06:41.201Z,70.00
2023-02-20T11:09:11.724Z,70.10
2023-02-20T11:11:46.065Z,70.30
2023-02-20T11:14:38.952Z,70.70
2023-02-20T11:17:22.936Z,71.00
2023-02-20T11:20:02.550Z,71.30
2023-02-20T11:22:44.312Z,71.40
2023-02-20T11:25:28.184Z,71.70
2023-02-20T11:28:12.749Z,71.90
2023-02-20T11:30:46.420Z,72.10
2023-02-20T11:33:23.219Z,72.30
2023-02-20T11:36:11.842Z,72.70
2023-02-20T11:38:43.068Z,72.90
2023-02-20T11:41:33.104Z,73.30
2023-02-20T11:44:24.484Z,73.40
2023-02-20T11:47:28.238Z,73.60
2023-02-20T11:50:21.774Z,73.70
2023-02-20T11:53:09.084Z,74.00
2023-02-20T11:55:38.388Z,74.40
2023-02-20T11:58:22.321Z,74.40
2023-02-20T12:00:55.444Z,74.60
2023-02-20T12:03:35.694Z,74.80
2023-02-20T12:06:48.163Z,74.90
2023-02-20T12:09:27.454Z,75.00
2023-02-20T12:11:58.815Z,75.30
2023-02-20T12:14:29.579Z,75.30
2023-02-20T12:17:17.488Z,75.50
2023-02-20T12:20:27.288Z,75.60
2023-02-20T12:23:40.784Z,75.70
2023-02-20T12:26:54.745Z,75.80
2023-02-20T12:29:56.251Z,75.90
2023-02-20T12:33:20.777Z,76.10
2023-02-20T12:35:58.430Z,76.30
2023-02-20T12:38:55.633Z,76.40
2023-02-20T12:41:39.836Z,76.30
2023-02-20T12:44:39.630Z,76.40
2023-02-20T12:47:35.813Z,76.40
2023-02-20T12:50:32.456Z,76.50
2023-02-20T12:53:26.635Z,76.80
2023-02-20T12:56:28.585Z,76.90
2023-02-20T12:59:12.165Z,76.90
2023-02-20T13:01:41.837Z,77.20
2023-02-20T13:04:41.731Z,77.40
2023-02-20T13:07:29.883Z,77.60
2023-02-20T13:10:26.969Z,77.70
2023-02-20T13:12:57.042Z,77.70
2023-02-20T13:15:54.749Z,78.10
2023-02-20T13:19:16.608Z,78.40
2023-02-20T13:21:45.915Z,78.60
2023-02-20T13:24:34.723Z,79.00
2023-02-20T13:27:28.274Z,79.10
2023-02-20T13:30:25.036Z,79.50
2023-02-20T13:33:33.586Z,79.80
2023-02-20T13:36:04.566Z,79.90
2023-02-20T13:38:34.276Z,80.30
2023-02-20T13:41:16.493Z,80.70
2023-02-20T13:43:51.340Z,80.60
2023-02-20T13:46:26.355Z,80.60
2023-02-20T13:49:01.044Z,80.90
2023-02-20T13:51:34.914Z,81.10
2023-02-20T13:54:32.180Z,81.30
2023-02-20T13:57:12.944Z,81.00
2023-02-20T13:59:42.660Z,81.80
2023-02-20T14:02:21.824Z,82.50
2023-02-20T14:05:17.576Z,83.20
2023-02-20T14:07:50.776Z,83.30
2023-02-20T14:10:53.428Z,84.50
2023-02-20T14:13:39.328Z,85.10
2023-02-20T14:16:36.232Z,85.50
2023-02-20T14:19:22.959Z,85.00
2023-02-20T14:21:56.031Z,85.20
2023-02-20T14:24:31.209Z,85.10
2023-02-20T14:27:01.574Z,85.10
2023-02-20T14:29:42.508Z,84.70
2023-02-20T14:32:16.728Z,84.50
2023-02-20T14:35:50.564Z,84.50
2023-02-20T14:39:28.153Z,84.30
2023-02-20T14:42:21.316Z,84.40
2023-02-20T14:44:59.773Z,84.60
2023-02-20T14:47:33.179Z,84.90
2023-02-20T14:50:30.215Z,85.10
2023-02-20T14:53:22.271Z,85.10
2023-02-20T14:55:58.788Z,85.20
2023-02-20T14:58:29.380Z,85.50
2023-02-20T15:00:58.991Z,85.40
2023-02-20T15:03:35.612Z,85.80
2023-02-20T15:06:10.938Z,85.60
2023-02-20T15:08:44.707Z,85.60
2023-02-20T15:11:19.987Z,85.40
2023-02-20T15:13:50.459Z,85.30
2023-02-20T15:16:35.971Z,85.50
2023-02-20T15:19:41.703Z,85.30
2023-02-20T15:22:41.456Z,85.50
2023-02-20T15:25:35.802Z,85.30
2023-02-20T15:28:32.882Z,85.40
2023-02-20T15:31:27.193Z,85.50
2023-02-20T15:34:02.318Z,86.10
2023-02-20T15:36:34.234Z,86.20
2023-02-20T15:39:03.353Z,86.50
2023-02-20T15:41:37.016Z,86.70
2023-02-20T15:44:06.503Z,86.50
2023-02-20T15:46:36.462Z,86.60
2023-02-20T15:49:19.368Z,86.70
2023-02-20T15:51:58.892Z,86.80
2023-02-20T15:54:28.970Z,86.90
2023-02-20T15:56:58.442Z,87.00
2023-02-20T15:59:27.756Z,87.00
2023-02-20T16:01:57.055Z,87.20
2023-02-20T16:04:26.278Z,87.60
2023-02-20T16:06:55.438Z,87.60
2023-02-20T16:09:24.593Z,88.00
2023-02-20T16:11:53.816Z,88.10
2023-02-20T16:14:28.973Z,88.20
2023-02-20T16:16:59.037Z,88.50
2023-02-20T16:19:41.817Z,88.80
2023-02-20T16:22:12.936Z,88.70
2023-02-20T16:24:44.098Z,89.00
2023-02-20T16:27:26.968Z,89.10
2023-02-20T16:29:58.687Z,89.60
2023-02-20T16:32:30.022Z,89.70
2023-02-20T16:35:02.536Z,89.80
2023-02-20T16:37:33.454Z,90.00
2023-02-20T16:40:02.539Z,90.00
2023-02-20T16:42:39.822Z,90.00
2023-02-20T16:45:21.492Z,90.00
2023-02-20T16:47:53.885Z,90.00
2023-02-20T16:50:29.622Z,90.00
2023-02-20T16:53:03.916Z,90.10
2023-02-20T16:55:39.596Z,90.10
2023-02-20T16:58:09.089Z,90.10
2023-02-20T17:00:56.711Z,90.10
2023-02-20T17:03:28.623Z,90.30
2023-02-20T17:06:00.876Z,90.20
2023-02-20T17:08:30.150Z,90.30
2023-02-20T17:10:59.292Z,90.30
2023-02-20T17:13:28.946Z,90.30
2023-02-20T17:15:58.448Z,90.30
2023-02-20T17:18:27.640Z,90.30
2023-02-20T17:20:56.753Z,90.50
2023-02-20T17:23:25.865Z,90.50
2023-02-20T17:25:54.943Z,90.40
2023-02-20T17:28:24.104Z,90.40
2023-02-20T17:30:55.386Z,90.60
2023-02-20T17:33:26.159Z,90.70
2023-02-20T17:35:55.450Z,90.70
2023-02-20T17:38:25.368Z,90.80
2023-02-20T17:40:54.572Z,90.90
2023-02-20T17:43:23.671Z,91.00
2023-02-20T17:45:53.049Z,91.10
2023-02-20T17:48:22.240Z,91.20
2023-02-20T17:50:51.345Z,91.30
2023-02-20T17:53:20.494Z,91.10
2023-02-20T17:55:49.676Z,91.10
2023-02-20T17:58:18.828Z,91.10
2023-02-20T18:00:47.921Z,91.20
2023-02-20T18:03:17.130Z,91.00
2023-02-20T18:05:46.301Z,91.00
2023-02-20T18:08:15.409Z,91.10
2023-02-20T18:10:44.596Z,91.10
2023-02-20T18:13:13.715Z,91.20
2023-02-20T18:15:44.298Z,91.20
2023-02-20T18:18:16.006Z,91.30
2023-02-20T18:20:45.404Z,91.20
2023-02-20T18:23:14.565Z,91.20
2023-02-20T18:25:43.890Z,91.30
2023-02-20T18:28:13.175Z,91.30
2023-02-20T18:30:43.022Z,91.30
2023-02-20T18:33:12.479Z,91.30
2023-02-20T18:35:41.787Z,91.40
2023-02-20T18:38:11.024Z,91.40
2023-02-20T18:40:40.293Z,91.40
2023-02-20T18:43:10.399Z,91.40
2023-02-20T18:45:39.968Z,91.40
2023-02-20T18:48:09.472Z,91.50
2023-02-20T18:50:41.845Z,91.70
2023-02-20T18:53:11.408Z,91.60
2023-02-20T18:55:40.528Z,91.50
2023-02-20T18:58:09.668Z,91.50
2023-02-20T19:00:41.543Z,91.50
2023-02-20T19:03:11.045Z,91.70
2023-02-20T19:05:40.296Z,91.50
2023-02-20T19:08:09.449Z,91.50
2023-02-20T19:10:38.607Z,91.70
2023-02-20T19:13:07.699Z,91.70
2023-02-20T19:15:36.857Z,91.80
2023-02-20T19:18:06.472Z,91.80
2023-02-20T19:20:36.355Z,91.90
2023-02-20T19:23:05.796Z,92.00
2023-02-20T19:25:35.131Z,92.00
2023-02-20T19:28:04.290Z,92.00
2023-02-20T19:30:33.690Z,92.30
2023-02-20T19:33:02.773Z,92.20
2023-02-20T19:35:31.833Z,92.40
2023-02-20T19:38:01.008Z,92.40
2023-02-20T19:40:30.209Z,92.40
2023-02-20T19:42:59.334Z,92.40
2023-02-20T19:45:28.492Z,92.50
2023-02-20T19:47:57.586Z,92.40
2023-02-20T19:50:31.928Z,92.60
2023-02-20T19:53:01.895Z,92.60
2023-02-20T19:55:32.643Z,92.50
2023-02-20T19:58:02.173Z,92.70
2023-02-20T20:00:31.349Z,92.80
2023-02-20T20:03:00.481Z,92.70
2023-02-20T20:05:29.603Z,92.80
2023-02-20T20:07:58.862Z,92.90
2023-02-20T20:10:30.987Z,92.80
2023-02-20T20:13:00.193Z,92.80
2023-02-20T20:15:30.464Z,92.90
2023-02-20T20:18:01.964Z,92.70
2023-02-20T20:20:35.885Z,92.80
2023-02-20T20:23:07.219Z,92.90
2023-02-20T20:25:36.480Z,92.90
2023-02-20T20:28:08.418Z,93.00
2023-02-20T20:30:42.548Z,93.00
2023-02-20T20:33:11.912Z,93.00
2023-02-20T20:35:41.036Z,92.90
2023-02-20T20:38:10.212Z,92.90
2023-02-20T20:40:39.390Z,93.00
2023-02-20T20:43:08.765Z,93.20
2023-02-20T20:45:37.876Z,93.10
2023-02-20T20:48:07.292Z,93.20
2023-02-20T20:50:36.528Z,93.30
2023-02-20T20:53:05.619Z,93.30
2023-02-20T20:55:35.455Z,93.20
2023-02-20T20:58:04.576Z,93.40
2023-02-20T21:00:36.154Z,93.40
2023-02-20T21:03:11.369Z,93.50
2023-02-20T21:05:40.548Z,93.50
2023-02-20T21:08:10.303Z,93.60
2023-02-20T21:10:39.400Z,93.60
2023-02-20T21:13:08.539Z,93.70
2023-02-20T21:15:38.286Z,93.60
2023-02-20T21:18:07.874Z,93.50
2023-02-20T21:20:37.384Z,93.60
2023-02-20T21:23:07.562Z,93.60
2023-02-20T21:25:36.819Z,93.70
2023-02-20T21:28:06.002Z,93.80
2023-02-20T21:30:35.231Z,93.80
2023-02-20T21:33:04.606Z,93.70
2023-02-20T21:35:33.720Z,93.80
2023-02-20T21:38:02.962Z,93.90
2023-02-20T21:40:32.215Z,93.90
2023-02-20T21:43:20.676Z,93.90
2023-02-20T21:45:50.807Z,94.00
2023-02-20T21:48:20.232Z,94.10
2023-02-20T21:50:49.448Z,94.10
2023-02-20T21:53:18.733Z,94.20
2023-02-20T21:55:48.586Z,94.10
2023-02-20T21:58:18.079Z,94.10
2023-02-20T22:00:47.487Z,94.10
2023-02-20T22:03:16.397Z,94.10
2023-02-20T22:05:45.488Z,94.00
2023-02-20T22:08:32.833Z,94.20
2023-02-20T22:11:21.230Z,94.30
2023-02-20T22:14:09.370Z,94.30
2023-02-20T22:16:56.917Z,94.40
2023-02-20T22:19:44.264Z,94.40
2023-02-20T22:22:31.482Z,94.40
2023-02-20T22:25:19.059Z,94.40
2023-02-20T22:28:06.647Z,94.40
2023-02-20T22:30:54.569Z,94.40
2023-02-20T22:33:42.220Z,94.30
2023-02-20T22:36:29.747Z,94.40
2023-02-20T22:39:17.050Z,94.40
2023-02-20T22:42:04.803Z,94.40
2023-02-20T22:44:52.268Z,94.50
2023-02-20T22:47:39.638Z,94.50
2023-02-20T22:50:27.329Z,94.50
2023-02-20T22:53:14.704Z,94.50
2023-02-20T22:56:02.347Z,94.40
2023-02-20T22:58:50.027Z,94.50
2023-02-20T23:01:37.355Z,94.50
2023-02-20T23:04:25.372Z,94.50
2023-02-20T23:07:13.016Z,94.50
2023-02-20T23:10:00.409Z,94.50
2023-02-20T23:12:47.540Z,94.50
2023-02-20T23:15:34.891Z,94.60
2023-02-20T23:18:22.378Z,94.60
2023-02-20T23:21:09.616Z,94.60
2023-02-20T23:23:57.113Z,94.60
2023-02-20T23:26:44.420Z,94.70
2023-02-20T23:29:31.864Z,94.60
2023-02-20T23:32:19.375Z,94.70
2023-02-20T23:35:06.896Z,94.70
2023-02-20T23:37:54.332Z,94.70
2023-02-20T23:40:42.064Z,94.70
2023-02-20T23:43:29.531Z,94.60
2023-02-20T23:46:16.888Z,94.60
2023-02-20T23:49:04.290Z,94.60
2023-02-20T23:51:52.524Z,94.60
2023-02-20T23:54:40.135Z,94.70
2023-02-20T23:57:27.856Z,94.70
